• Join FlightAware (Why Join?)
  • Login
  • US Flag 
03:39PM EST


 

Airport Tracker/Info


-or-


 

Live Flight TrackerFlight Track Log ✈ AWE801 ✈ 30-Apr-2013 ✈ SBGL / GIG - KCLT

Flight Track Log - Related Links

Times and Time Zones

All times are in EDT time to prevent confusion due to time zone crossing. See the AWE801 flight status page for this flight to view local times or setup timezone preferences in your user account.

Time Position Orientation Groundspeed Altitude Reporting Facility
EDT Latitude Longitude Course Direction KTS MPH feet Rate Location/Type
10:03PM -22.4949 -43.4363 330° Northwest  Level FlightAware Approximate
10:04PM -22.3901 -43.5004 331° Northwest  Level FlightAware Approximate
10:05PM -22.2854 -43.5643 331° Northwest  Level FlightAware Approximate
10:06PM -22.1806 -43.6282 331° Northwest  Level FlightAware Approximate
10:07PM -22.0758 -43.6919 331° Northwest  Level FlightAware Approximate
10:08PM -21.9709 -43.7556 331° Northwest  Level FlightAware Approximate
10:09PM -21.8661 -43.8191 331° Northwest  Level FlightAware Approximate
10:10PM -21.7612 -43.8826 331° Northwest  Level FlightAware Approximate
10:11PM -21.6563 -43.9459 331° Northwest  Level FlightAware Approximate
10:12PM -21.5514 -44.0092 331° Northwest  Level FlightAware Approximate
10:13PM -21.4464 -44.0724 331° Northwest  Level FlightAware Approximate
10:14PM -21.3414 -44.1355 331° Northwest  Level FlightAware Approximate
10:15PM -21.2365 -44.1985 331° Northwest  Level FlightAware Approximate
10:16PM -21.1314 -44.2615 331° Northwest  Level FlightAware Approximate
10:17PM -21.0264 -44.3243 331° Northwest  Level FlightAware Approximate
10:18PM -20.9259 -44.3855 330° Northwest  Level FlightAware Approximate
10:19PM -20.8216 -44.4497 330° Northwest  Level FlightAware Approximate
10:20PM -20.7174 -44.5139 330° Northwest  Level FlightAware Approximate
10:21PM -20.6131 -44.5780 330° Northwest  Level FlightAware Approximate
10:22PM -20.5088 -44.6420 330° Northwest  Level FlightAware Approximate
10:23PM -20.4045 -44.7060 330° Northwest  Level FlightAware Approximate
10:24PM -20.3001 -44.7698 330° Northwest  Level FlightAware Approximate
10:25PM -20.1957 -44.8335 330° Northwest  Level FlightAware Approximate
10:26PM -20.0913 -44.8972 330° Northwest  Level FlightAware Approximate
10:27PM -19.9869 -44.9608 330° Northwest  Level FlightAware Approximate
10:28PM -19.8825 -45.0243 330° Northwest  Level FlightAware Approximate
10:29PM -19.7780 -45.0877 330° Northwest  Level FlightAware Approximate
10:30PM -19.6735 -45.1510 330° Northwest  Level FlightAware Approximate
10:31PM -19.5690 -45.2142 330° Northwest  Level FlightAware Approximate
10:32PM -19.4645 -45.2774 330° Northwest  Level FlightAware Approximate
10:33PM -19.3599 -45.3405 330° Northwest  Level FlightAware Approximate
10:34PM -19.2553 -45.4035 330° Northwest  Level FlightAware Approximate
10:35PM -19.1507 -45.4664 330° Northwest  Level FlightAware Approximate
10:36PM -19.0461 -45.5292 330° Northwest  Level FlightAware Approximate
10:37PM -18.9415 -45.5920 330° Northwest  Level FlightAware Approximate
10:38PM -18.8368 -45.6547 330° Northwest  Level FlightAware Approximate
10:39PM -18.7321 -45.7173 330° Northwest  Level FlightAware Approximate
10:40PM -18.6274 -45.7798 330° Northwest  Level FlightAware Approximate
10:41PM -18.5227 -45.8423 331° Northwest  Level FlightAware Approximate
10:42PM -18.4179 -45.9046 331° Northwest  Level FlightAware Approximate
10:43PM -18.3132 -45.9669 331° Northwest  Level FlightAware Approximate
10:44PM -18.2084 -46.0291 331° Northwest  Level FlightAware Approximate
10:45PM -18.1036 -46.0913 331° Northwest  Level FlightAware Approximate
10:46PM -17.9988 -46.1534 331° Northwest  Level FlightAware Approximate
10:47PM -17.8939 -46.2154 331° Northwest  Level FlightAware Approximate
10:48PM -17.7890 -46.2773 331° Northwest  Level FlightAware Approximate
10:49PM -17.6842 -46.3391 331° Northwest  Level FlightAware Approximate
10:50PM -17.5793 -46.4009 331° Northwest  Level FlightAware Approximate
10:51PM -17.4743 -46.4626 331° Northwest  Level FlightAware Approximate
10:52PM -17.3694 -46.5243 331° Northwest  Level FlightAware Approximate
10:53PM -17.2644 -46.5858 331° Northwest  Level FlightAware Approximate
10:54PM -17.1595 -46.6474 331° Northwest  Level FlightAware Approximate
10:55PM -17.0544 -46.7088 331° Northwest  Level FlightAware Approximate
10:56PM -16.9494 -46.7701 331° Northwest  Level FlightAware Approximate
10:57PM -16.8444 -46.8314 331° Northwest  Level FlightAware Approximate
10:58PM -16.7393 -46.8927 331° Northwest  Level FlightAware Approximate
10:59PM -16.6343 -46.9538 331° Northwest  Level FlightAware Approximate
11:00PM -16.5292 -47.0149 331° Northwest  Level FlightAware Approximate
11:01PM -16.4241 -47.0759 331° Northwest  Level FlightAware Approximate
11:02PM -16.3190 -47.1369 331° Northwest  Level FlightAware Approximate
11:03PM -16.2138 -47.1978 331° Northwest  Level FlightAware Approximate
11:04PM -16.1087 -47.2586 331° Northwest  Level FlightAware Approximate
11:05PM -16.0035 -47.3193 331° Northwest  Level FlightAware Approximate
11:06PM -15.8983 -47.3800 331° Northwest  Level FlightAware Approximate
11:07PM -15.7931 -47.4407 331° Northwest  Level FlightAware Approximate
11:08PM -15.6878 -47.5012 331° Northwest  Level FlightAware Approximate
11:09PM -15.5826 -47.5617 331° Northwest  Level FlightAware Approximate
11:10PM -15.4773 -47.6222 331° Northwest  Level FlightAware Approximate
11:11PM -15.3721 -47.6826 331° Northwest  Level FlightAware Approximate
11:12PM -15.2668 -47.7429 331° Northwest  Level FlightAware Approximate
11:13PM -15.1615 -47.8032 331° Northwest  Level FlightAware Approximate
11:14PM -15.0561 -47.8634 331° Northwest  Level FlightAware Approximate
11:15PM -14.9508 -47.9235 331° Northwest  Level FlightAware Approximate
11:16PM -14.8454 -47.9836 331° Northwest  Level FlightAware Approximate
11:17PM -14.7401 -48.0436 331° Northwest  Level FlightAware Approximate
11:18PM -14.6347 -48.1036 331° Northwest  Level FlightAware Approximate
11:19PM -14.5293 -48.1635 331° Northwest  Level FlightAware Approximate
11:20PM -14.4239 -48.2233 331° Northwest  Level FlightAware Approximate
11:21PM -14.3184 -48.2831 331° Northwest  Level FlightAware Approximate
11:22PM -14.2130 -48.3429 331° Northwest  Level FlightAware Approximate
11:23PM -14.1075 -48.4026 331° Northwest  Level FlightAware Approximate
11:24PM -14.0020 -48.4622 331° Northwest  Level FlightAware Approximate
11:25PM -13.8965 -48.5218 331° Northwest  Level FlightAware Approximate
11:26PM -13.7910 -48.5813 331° Northwest  Level FlightAware Approximate
11:27PM -13.6855 -48.6408 331° Northwest  Level FlightAware Approximate
11:28PM -13.5800 -48.7002 331° Northwest  Level FlightAware Approximate
11:29PM -13.4744 -48.7595 331° Northwest  Level FlightAware Approximate
11:30PM -13.3689 -48.8188 331° Northwest  Level FlightAware Approximate
11:31PM -13.2633 -48.8781 331° Northwest  Level FlightAware Approximate
11:32PM -13.1577 -48.9373 331° Northwest  Level FlightAware Approximate
11:33PM -13.0521 -48.9964 331° Northwest  Level FlightAware Approximate
11:34PM -12.9465 -49.0555 331° Northwest  Level FlightAware Approximate
11:35PM -12.8408 -49.1146 331° Northwest  Level FlightAware Approximate
11:36PM -12.7352 -49.1736 331° Northwest  Level FlightAware Approximate
11:37PM -12.6295 -49.2325 331° Northwest  Level FlightAware Approximate
11:38PM -12.5239 -49.2915 331° Northwest  Level FlightAware Approximate
11:39PM -12.4182 -49.3503 331° Northwest  Level FlightAware Approximate
11:40PM -12.3125 -49.4091 331° Northwest  Level FlightAware Approximate
11:41PM -12.2068 -49.4679 331° Northwest  Level FlightAware Approximate
11:42PM -12.1011 -49.5266 331° Northwest  Level FlightAware Approximate
11:43PM -11.9953 -49.5853 332° Northwest  Level FlightAware Approximate
11:44PM -11.8896 -49.6439 332° Northwest  Level FlightAware Approximate
11:45PM -11.7838 -49.7025 332° Northwest  Level FlightAware Approximate
11:46PM -11.6781 -49.7610 332° Northwest  Level FlightAware Approximate
11:47PM -11.5723 -49.8195 332° Northwest  Level FlightAware Approximate
11:48PM -11.4665 -49.8779 332° Northwest  Level FlightAware Approximate
11:49PM -11.3607 -49.9363 332° Northwest  Level FlightAware Approximate
11:50PM -11.2549 -49.9947 332° Northwest  Level FlightAware Approximate
11:51PM -11.1490 -50.0530 332° Northwest  Level FlightAware Approximate
11:52PM -11.0432 -50.1113 332° Northwest  Level FlightAware Approximate
11:53PM -10.9373 -50.1695 332° Northwest  Level FlightAware Approximate
11:54PM -10.8315 -50.2277 332° Northwest  Level FlightAware Approximate
11:55PM -10.7256 -50.2858 332° Northwest  Level FlightAware Approximate
11:56PM -10.6197 -50.3439 332° Northwest  Level FlightAware Approximate
11:57PM -10.5138 -50.4020 332° Northwest  Level FlightAware Approximate
11:58PM -10.4079 -50.4600 332° Northwest  Level FlightAware Approximate
11:59PM -10.3020 -50.5180 332° Northwest  Level FlightAware Approximate
12:00AM -10.1961 -50.5760 332° Northwest  Level FlightAware Approximate
12:01AM -10.0902 -50.6339 332° Northwest  Level FlightAware Approximate
12:02AM -9.9842 -50.6918 332° Northwest  Level FlightAware Approximate
12:03AM -9.8783 -50.7496 332° Northwest  Level FlightAware Approximate
12:04AM -9.7723 -50.8074 332° Northwest  Level FlightAware Approximate
12:05AM -9.6664 -50.8652 332° Northwest  Level FlightAware Approximate
12:06AM -9.5604 -50.9229 332° Northwest  Level FlightAware Approximate
12:07AM -9.4544 -50.9806 332° Northwest  Level FlightAware Approximate
12:08AM -9.3484 -51.0382 332° Northwest  Level FlightAware Approximate
12:09AM -9.2424 -51.0958 332° Northwest  Level FlightAware Approximate
12:10AM -9.1363 -51.1534 332° Northwest  Level FlightAware Approximate
12:11AM -9.0303 -51.2110 332° Northwest  Level FlightAware Approximate
12:12AM -8.9243 -51.2685 332° Northwest  Level FlightAware Approximate
12:13AM -8.8182 -51.3260 332° Northwest  Level FlightAware Approximate
12:14AM -8.7122 -51.3834 332° Northwest  Level FlightAware Approximate
12:15AM -8.6061 -51.4408 332° Northwest  Level FlightAware Approximate
12:16AM -8.5000 -51.4982 332° Northwest  Level FlightAware Approximate
12:17AM -8.3940 -51.5555 332° Northwest  Level FlightAware Approximate
12:18AM -8.2879 -51.6129 332° Northwest  Level FlightAware Approximate
12:19AM -8.1818 -51.6702 332° Northwest  Level FlightAware Approximate
12:20AM -8.0757 -51.7274 332° Northwest  Level FlightAware Approximate
12:21AM -7.9695 -51.7846 332° Northwest  Level FlightAware Approximate
12:22AM -7.8634 -51.8419 332° Northwest  Level FlightAware Approximate
12:23AM -7.7573 -51.8990 332° Northwest  Level FlightAware Approximate
12:24AM -7.6511 -51.9562 332° Northwest  Level FlightAware Approximate
12:25AM -7.5450 -52.0133 332° Northwest  Level FlightAware Approximate
12:26AM -7.4388 -52.0704 332° Northwest  Level FlightAware Approximate
12:27AM -7.3327 -52.1274 332° Northwest  Level FlightAware Approximate
12:28AM -7.2265 -52.1844 332° Northwest  Level FlightAware Approximate
12:29AM -7.1203 -52.2414 332° Northwest  Level FlightAware Approximate
12:30AM -7.0142 -52.2984 332° Northwest  Level FlightAware Approximate
12:31AM -6.9080 -52.3554 332° Northwest  Level FlightAware Approximate
12:32AM -6.8018 -52.4123 332° Northwest  Level FlightAware Approximate
12:33AM -6.6956 -52.4692 332° Northwest  Level FlightAware Approximate
12:34AM -6.5894 -52.5260 332° Northwest  Level FlightAware Approximate
12:35AM -6.4831 -52.5829 332° Northwest  Level FlightAware Approximate
12:36AM -6.3769 -52.6397 332° Northwest  Level FlightAware Approximate
12:37AM -6.2707 -52.6965 332° Northwest  Level FlightAware Approximate
12:38AM -6.1645 -52.7533 332° Northwest  Level FlightAware Approximate
12:39AM -6.0582 -52.8101 332° Northwest  Level FlightAware Approximate
12:40AM -5.9520 -52.8668 332° Northwest  Level FlightAware Approximate
12:41AM -5.8457 -52.9235 332° Northwest  Level FlightAware Approximate
12:42AM -5.7395 -52.9802 332° Northwest  Level FlightAware Approximate
12:43AM -5.6332 -53.0368 332° Northwest  Level FlightAware Approximate
12:44AM -5.5269 -53.0935 332° Northwest  Level FlightAware Approximate
12:45AM -5.4207 -53.1501 332° Northwest  Level FlightAware Approximate
12:46AM -5.3144 -53.2067 332° Northwest  Level FlightAware Approximate
12:47AM -5.2081 -53.2633 332° Northwest  Level FlightAware Approximate
12:48AM -5.1018 -53.3199 332° Northwest  Level FlightAware Approximate
12:49AM -4.9955 -53.3764 332° Northwest  Level FlightAware Approximate
12:50AM -4.8892 -53.4330 332° Northwest  Level FlightAware Approximate
12:51AM -4.7829 -53.4895 332° Northwest  Level FlightAware Approximate
12:52AM -4.6766 -53.5460 332° Northwest  Level FlightAware Approximate
12:53AM -4.5703 -53.6025 332° Northwest  Level FlightAware Approximate
12:54AM -4.4640 -53.6589 332° Northwest  Level FlightAware Approximate
12:55AM -4.3577 -53.7154 332° Northwest  Level FlightAware Approximate
12:56AM -4.2513 -53.7718 332° Northwest  Level FlightAware Approximate
12:57AM -4.1450 -53.8282 332° Northwest  Level FlightAware Approximate
12:58AM -4.0387 -53.8846 332° Northwest  Level FlightAware Approximate
12:59AM -3.9323 -53.9410 332° Northwest  Level FlightAware Approximate
01:00AM -3.8260 -53.9974 332° Northwest  Level FlightAware Approximate
01:01AM -3.7196 -54.0537 332° Northwest  Level FlightAware Approximate
01:02AM -3.6133 -54.1101 332° Northwest  Level FlightAware Approximate
01:03AM -3.5069 -54.1664 332° Northwest  Level FlightAware Approximate
01:04AM -3.4006 -54.2227 332° Northwest  Level FlightAware Approximate
01:05AM -3.2942 -54.2790 332° Northwest  Level FlightAware Approximate
01:06AM -3.1879 -54.3353 332° Northwest  Level FlightAware Approximate
01:07AM -3.0815 -54.3916 332° Northwest  Level FlightAware Approximate
01:08AM -2.9751 -54.4479 332° Northwest  Level FlightAware Approximate
01:09AM -2.8688 -54.5041 332° Northwest  Level FlightAware Approximate
01:10AM -2.7624 -54.5604 332° Northwest  Level FlightAware Approximate
01:11AM -2.6560 -54.6166 332° Northwest  Level FlightAware Approximate
01:12AM -2.5496 -54.6728 332° Northwest  Level FlightAware Approximate
01:13AM -2.4432 -54.7291 332° Northwest  Level FlightAware Approximate
01:14AM -2.3369 -54.7853 332° Northwest  Level FlightAware Approximate
01:15AM -2.2305 -54.8415 332° Northwest  Level FlightAware Approximate
01:16AM -2.1241 -54.8977 332° Northwest  Level FlightAware Approximate
01:17AM -2.0177 -54.9538 332° Northwest  Level FlightAware Approximate
01:18AM -1.9113 -55.0100 332° Northwest  Level FlightAware Approximate
01:19AM -1.8049 -55.0662 332° Northwest  Level FlightAware Approximate
01:20AM -1.6985 -55.1224 332° Northwest  Level FlightAware Approximate
01:21AM -1.5921 -55.1785 332° Northwest  Level FlightAware Approximate
01:22AM -1.4857 -55.2347 332° Northwest  Level FlightAware Approximate
01:23AM -1.3793 -55.2908 332° Northwest  Level FlightAware Approximate
01:24AM -1.2729 -55.3470 332° Northwest  Level FlightAware Approximate
01:25AM -1.1665 -55.4031 332° Northwest  Level FlightAware Approximate
01:26AM -1.0601 -55.4592 332° Northwest  Level FlightAware Approximate
01:27AM -0.9537 -55.5154 332° Northwest  Level FlightAware Approximate
01:28AM -0.8473 -55.5715 332° Northwest  Level FlightAware Approximate
01:29AM -0.7409 -55.6276 332° Northwest  Level FlightAware Approximate
01:30AM -0.6345 -55.6837 332° Northwest  Level FlightAware Approximate
01:31AM -0.5281 -55.7398 332° Northwest  Level FlightAware Approximate
01:32AM -0.4216 -55.7960 332° Northwest  Level FlightAware Approximate
01:33AM -0.3152 -55.8521 332° Northwest  Level FlightAware Approximate
01:34AM -0.2088 -55.9082 332° Northwest  Level FlightAware Approximate
01:35AM -0.1024 -55.9643 332° Northwest  Level FlightAware Approximate
01:36AM 0.0040 -56.0204 332° Northwest  Level FlightAware Approximate
01:37AM 0.1104 -56.0765 332° Northwest  Level FlightAware Approximate
01:38AM 0.2168 -56.1326 332° Northwest  Level FlightAware Approximate
01:39AM 0.3232 -56.1887 332° Northwest  Level FlightAware Approximate
01:40AM 0.4296 -56.2449 332° Northwest  Level FlightAware Approximate
01:41AM 0.5360 -56.3010 332° Northwest  Level FlightAware Approximate
01:42AM 0.6424 -56.3571 332° Northwest  Level FlightAware Approximate
01:43AM 0.7489 -56.4132 332° Northwest  Level FlightAware Approximate
01:44AM 0.8553 -56.4693 332° Northwest  Level FlightAware Approximate
01:45AM 0.9617 -56.5255 332° Northwest  Level FlightAware Approximate
01:46AM 1.0681 -56.5816 332° Northwest  Level FlightAware Approximate
01:47AM 1.1745 -56.6377 332° Northwest  Level FlightAware Approximate
01:48AM 1.2809 -56.6939 332° Northwest  Level FlightAware Approximate
01:49AM 1.3873 -56.7500 332° Northwest  Level FlightAware Approximate
01:50AM 1.4937 -56.8062 332° Northwest  Level FlightAware Approximate
01:51AM 1.6001 -56.8623 332° Northwest  Level FlightAware Approximate
01:52AM 1.7065 -56.9185 332° Northwest  Level FlightAware Approximate
01:53AM 1.8129 -56.9746 332° Northwest  Level FlightAware Approximate
01:54AM 1.9193 -57.0308 332° Northwest  Level FlightAware Approximate
01:55AM 2.0257 -57.0870 332° Northwest  Level FlightAware Approximate
01:56AM 2.1321 -57.1432 332° Northwest  Level FlightAware Approximate
01:57AM 2.2384 -57.1994 332° Northwest  Level FlightAware Approximate
01:58AM 2.3448 -57.2556 332° Northwest  Level FlightAware Approximate
01:59AM 2.4512 -57.3118 332° Northwest  Level FlightAware Approximate
02:00AM 2.5576 -57.3680 332° Northwest  Level FlightAware Approximate
02:01AM 2.6640 -57.4242 332° Northwest  Level FlightAware Approximate
02:02AM 2.7703 -57.4805 332° Northwest  Level FlightAware Approximate
02:03AM 2.8767 -57.5367 332° Northwest  Level FlightAware Approximate
02:04AM 2.9831 -57.5930 332° Northwest  Level FlightAware Approximate
02:05AM 3.0895 -57.6493 332° Northwest  Level FlightAware Approximate
02:06AM 3.1958 -57.7055 332° Northwest  Level FlightAware Approximate
02:07AM 3.3022 -57.7618 332° Northwest  Level FlightAware Approximate
02:08AM 3.4085 -57.8181 332° Northwest  Level FlightAware Approximate
02:09AM 3.5149 -57.8745 332° Northwest  Level FlightAware Approximate
02:10AM 3.6212 -57.9308 332° Northwest  Level FlightAware Approximate
02:11AM 3.7276 -57.9871 332° Northwest  Level FlightAware Approximate
02:12AM 3.8338 -58.0438 332° Northwest  Level FlightAware Approximate
02:13AM 3.9398 -58.1007 332° Northwest  Level FlightAware Approximate
02:14AM 4.0458 -58.1577 332° Northwest  Level FlightAware Approximate
02:15AM 4.1518 -58.2147 332° Northwest  Level FlightAware Approximate
02:16AM 4.2578 -58.2718 332° Northwest  Level FlightAware Approximate
02:17AM 4.3638 -58.3288 332° Northwest  Level FlightAware Approximate
02:18AM 4.4698 -58.3858 332° Northwest  Level FlightAware Approximate
02:19AM 4.5758 -58.4429 332° Northwest  Level FlightAware Approximate
02:20AM 4.6818 -58.5000 332° Northwest  Level FlightAware Approximate
02:21AM 4.7878 -58.5571 332° Northwest  Level FlightAware Approximate
02:22AM 4.8938 -58.6142 332° Northwest  Level FlightAware Approximate
02:23AM 4.9998 -58.6713 332° Northwest  Level FlightAware Approximate
02:24AM 5.1058 -58.7285 332° Northwest  Level FlightAware Approximate
02:25AM 5.2117 -58.7857 332° Northwest  Level FlightAware Approximate
02:26AM 5.3178 -58.8426 333° Northwest  Level FlightAware Approximate
02:27AM 5.4246 -58.8983 333° Northwest  Level FlightAware Approximate
02:28AM 5.5314 -58.9539 333° Northwest  Level FlightAware Approximate
02:29AM 5.6382 -59.0096 333° Northwest  Level FlightAware Approximate
02:30AM 5.7449 -59.0653 333° Northwest  Level FlightAware Approximate
02:31AM 5.8517 -59.1211 333° Northwest  Level FlightAware Approximate
02:32AM 5.9584 -59.1768 333° Northwest  Level FlightAware Approximate
02:33AM 6.0652 -59.2326 333° Northwest  Level FlightAware Approximate
02:34AM 6.1715 -59.2892 332° Northwest  Level FlightAware Approximate
02:35AM 6.2778 -59.3458 332° Northwest  Level FlightAware Approximate
02:36AM 6.3841 -59.4024 332° Northwest  Level FlightAware Approximate
02:37AM 6.4904 -59.4591 332° Northwest  Level FlightAware Approximate
02:38AM 6.5967 -59.5158 332° Northwest  Level FlightAware Approximate
02:39AM 6.7030 -59.5725 332° Northwest  Level FlightAware Approximate
02:40AM 6.8093 -59.6292 332° Northwest  Level FlightAware Approximate
02:41AM 6.9156 -59.6860 332° Northwest  Level FlightAware Approximate
02:42AM 7.0219 -59.7428 332° Northwest  Level FlightAware Approximate
02:43AM 7.1281 -59.7996 332° Northwest  Level FlightAware Approximate
02:44AM 7.2344 -59.8565 332° Northwest  Level FlightAware Approximate
02:45AM 7.3406 -59.9134 332° Northwest  Level FlightAware Approximate
02:46AM 7.4469 -59.9703 332° Northwest  Level FlightAware Approximate
02:47AM 7.5531 -60.0272 332° Northwest  Level FlightAware Approximate
02:48AM 7.6593 -60.0841 332° Northwest  Level FlightAware Approximate
02:49AM 7.7656 -60.1411 332° Northwest  Level FlightAware Approximate
02:50AM 7.8718 -60.1982 332° Northwest  Level FlightAware Approximate
02:51AM 7.9780 -60.2552 332° Northwest  Level FlightAware Approximate
02:52AM 8.0842 -60.3123 332° Northwest  Level FlightAware Approximate
02:53AM 8.1904 -60.3694 332° Northwest  Level FlightAware Approximate
02:54AM 8.2965 -60.4265 332° Northwest  Level FlightAware Approximate
02:55AM 8.4027 -60.4837 332° Northwest  Level FlightAware Approximate
02:56AM 8.5089 -60.5409 332° Northwest  Level FlightAware Approximate
02:57AM 8.6150 -60.5981 332° Northwest  Level FlightAware Approximate
02:58AM 8.7212 -60.6553 332° Northwest  Level FlightAware Approximate
02:59AM 8.8302 -60.7142 332° Northwest  Level FlightAware Approximate
03:00AM 8.9391 -60.7730 332° Northwest  Level FlightAware Approximate
03:01AM 9.0481 -60.8319 332° Northwest  Level FlightAware Approximate
03:02AM 9.1570 -60.8909 332° Northwest  Level FlightAware Approximate
03:03AM 9.2660 -60.9498 332° Northwest  Level FlightAware Approximate
03:04AM 9.3749 -61.0088 332° Northwest  Level FlightAware Approximate
03:05AM 9.4838 -61.0679 332° Northwest  Level FlightAware Approximate
03:06AM 9.5927 -61.1269 332° Northwest  Level FlightAware Approximate
03:07AM 9.7016 -61.1861 332° Northwest  Level FlightAware Approximate
03:08AM 9.8105 -61.2452 332° Northwest  Level FlightAware Approximate
03:09AM 9.9193 -61.3047 332° Northwest  Level FlightAware Approximate
03:10AM 10.0279 -61.3643 332° Northwest  Level FlightAware Approximate
03:11AM 10.1365 -61.4240 332° Northwest  Level FlightAware Approximate
03:12AM 10.2452 -61.4837 332° Northwest  Level FlightAware Approximate
03:13AM 10.3538 -61.5435 332° Northwest  Level FlightAware Approximate
03:14AM 10.4624 -61.6033 332° Northwest  Level FlightAware Approximate
03:15AM 10.5710 -61.6632 332° Northwest  Level FlightAware Approximate
03:16AM 10.6796 -61.7230 332° Northwest  Level FlightAware Approximate
03:17AM 10.7882 -61.7830 332° Northwest  Level FlightAware Approximate
03:18AM 10.8967 -61.8429 332° Northwest  Level FlightAware Approximate
03:19AM 11.0053 -61.9030 332° Northwest  Level FlightAware Approximate
03:20AM 11.1138 -61.9630 331° Northwest  Level FlightAware Approximate
03:21AM 11.2223 -62.0232 331° Northwest  Level FlightAware Approximate
03:22AM 11.3308 -62.0833 331° Northwest  Level FlightAware Approximate
03:23AM 11.4394 -62.1435 331° Northwest  Level FlightAware Approximate
03:24AM 11.5478 -62.2038 331° Northwest  Level FlightAware Approximate
03:25AM 11.6563 -62.2640 331° Northwest  Level FlightAware Approximate
03:26AM 11.7648 -62.3244 331° Northwest  Level FlightAware Approximate
03:27AM 11.8732 -62.3848 331° Northwest  Level FlightAware Approximate
03:28AM 11.9817 -62.4452 331° Northwest  Level FlightAware Approximate
03:29AM 12.0899 -62.5060 331° Northwest  Level FlightAware Approximate
03:30AM 12.1980 -62.5672 331° Northwest  Level FlightAware Approximate
03:31AM 12.3060 -62.6285 331° Northwest  Level FlightAware Approximate
03:32AM 12.4140 -62.6898 331° Northwest  Level FlightAware Approximate
03:33AM 12.5220 -62.7512 331° Northwest  Level FlightAware Approximate
03:34AM 12.6300 -62.8127 331° Northwest  Level FlightAware Approximate
03:35AM 12.7380 -62.8741 331° Northwest  Level FlightAware Approximate
03:36AM 12.8464 -62.9347 332° Northwest  Level FlightAware Approximate
03:37AM 12.9552 -62.9947 332° Northwest  Level FlightAware Approximate
03:38AM 13.0640 -63.0547 332° Northwest  Level FlightAware Approximate
03:39AM 13.1728 -63.1148 332° Northwest  Level FlightAware Approximate
03:40AM 13.2816 -63.1749 332° Northwest  Level FlightAware Approximate
03:40AM 15.0167 -64.1333 332° Northwest 470 541 38,000  Level San Juan Center
03:41AM 13.3903 -63.2351 332° Northwest  Level FlightAware Approximate
03:41AM 15.1167 -64.2167 321° Northwest 460 529 38,000  Level San Juan Center
03:42AM 13.4991 -63.2953 332° Northwest  Level FlightAware Approximate
03:42AM 15.2333 -64.2833 331° Northwest 460 529 38,000  Level San Juan Center
03:43AM 13.6078 -63.3556 332° Northwest  Level FlightAware Approximate
03:43AM 15.3333 -64.3500 327° Northwest 460 529 38,000  Level San Juan Center
03:44AM 13.7165 -63.4159 332° Northwest  Level FlightAware Approximate
03:44AM 15.4500 -64.4167 331° Northwest 470 541 38,000  Level San Juan Center
03:45AM 13.8252 -63.4763 332° Northwest  Level FlightAware Approximate
03:45AM 15.5500 -64.5000 321° Northwest 460 529 38,000  Level San Juan Center
03:46AM 15.6667 -64.5667 331° Northwest 450 518 38,000  Level San Juan Center
03:47AM 15.7667 -64.6333 327° Northwest 450 518 38,000  Level San Juan Center
03:48AM 15.8833 -64.7000 331° Northwest 460 529 38,000  Level San Juan Center
03:49AM 15.9833 -64.8000 316° Northwest 470 541 38,000  Level San Juan Center
03:50AM 16.0833 -64.8667 327° Northwest 460 529 38,000  Level San Juan Center
03:51AM 16.2000 -64.9333 331° Northwest 440 506 38,000  Level San Juan Center
03:52AM 16.3000 -65.0000 327° Northwest 440 506 38,000  Level San Juan Center
03:53AM 16.4000 -65.0667 327° Northwest 440 506 38,000  Level San Juan Center
03:54AM 16.5000 -65.1500 321° Northwest 440 506 38,000  Level San Juan Center
03:55AM 16.6000 -65.2000 334° Northwest 430 495 38,000  Level San Juan Center
03:56AM 16.7000 -65.2667 327° Northwest 430 495 38,000  Level San Juan Center
03:57AM 16.8000 -65.3333 327° Northwest 440 506 38,000  Level San Juan Center
03:58AM 16.9167 -65.4000 331° Northwest 440 506 38,000  Level San Juan Center
03:59AM 17.0167 -65.4667 327° Northwest 440 506 38,000  Level San Juan Center
04:00AM 17.1167 -65.5333 328° Northwest 440 506 38,000  Level San Juan Center
04:01AM 17.2167 -65.6167 321° Northwest 440 506 38,000  Level San Juan Center
04:02AM 17.3333 -65.7000 326° Northwest 460 529 38,000  Level San Juan Center
04:03AM 17.4167 -65.7500 330° Northwest 420 483 38,000  Level San Juan Center
04:04AM 17.5167 -65.8167 328° Northwest 420 483 38,000  Level San Juan Center
04:05AM 17.6333 -65.9000 326° Northwest 460 529 38,000  Level San Juan Center
04:06AM 17.7333 -65.9667 328° Northwest 430 495 38,000  Level San Juan Center
04:07AM 17.8167 -66.0167 330° Northwest 400 460 38,000  Level San Juan Center
04:08AM 17.9167 -66.1000 322° Northwest 430 495 38,100 240 Climbing San Juan Center
04:09AM 18.0167 -66.1667 328° Northwest 420 483 38,500 420 Climbing San Juan Center
04:10AM 18.1333 -66.2333 331° Northwest 440 506 39,000 540 Climbing San Juan Center
04:11AM 18.2333 -66.3000 328° Northwest 420 483 39,600 480 Climbing San Juan Center
04:12AM 18.3333 -66.3667 328° Northwest 410 472 40,000 180 Climbing San Juan Center
04:13AM 18.4167 -66.4333 323° Northwest 410 472 40,000  Level San Juan Center
04:14AM 18.5167 -66.5000 328° Northwest 410 472 40,000  Level San Juan Center
04:15AM 18.6167 -66.5667 328° Northwest 410 472 40,000  Level San Juan Center
04:16AM 18.7167 -66.6333 328° Northwest 410 472 40,000  Level San Juan Center
04:17AM 18.8167 -66.7000 328° Northwest 400 460 40,000  Level San Juan Center
04:18AM 18.9000 -66.7667 323° Northwest 400 460 40,000  Level San Juan Center
04:19AM 19.0000 -66.8333 328° Northwest 400 460 40,000  Level San Juan Center
04:20AM 19.1000 -66.9000 328° Northwest 400 460 40,000  Level San Juan Center
04:21AM 19.1833 -66.9667 323° Northwest 420 483 40,000  Level San Juan Center
04:22AM 19.2667 -67.0167 330° Northwest 390 449 40,000  Level San Juan Center
04:23AM 19.3667 -67.0833 328° Northwest 400 460 40,000  Level San Juan Center
04:24AM 19.4667 -67.1500 328° Northwest 410 472 40,000  Level San Juan Center
04:25AM 19.5500 -67.2167 323° Northwest 420 483 40,000  Level San Juan Center
04:26AM 19.6500 -67.2833 328° Northwest 410 472 40,000  Level San Juan Center
04:27AM 19.7500 -67.3500 328° Northwest 410 472 40,000  Level San Juan Center
04:28AM 19.8500 -67.4333 322° Northwest 420 483 40,000  Level San Juan Center
04:29AM 19.9500 -67.5000 328° Northwest 410 472 40,000  Level San Juan Center
04:30AM 20.0500 -67.5667 328° Northwest 420 483 40,000  Level San Juan Center
04:31AM 20.1333 -67.6333 323° Northwest 410 472 40,000  Level San Juan Center
04:33AM 20.3325 -67.7808 325° Northwest 428 493 40,000  Level Miami Center
04:34AM 20.4119 -67.8594 317° Northwest 418 481 40,000  Level Miami Center
04:35AM 20.5014 -67.9331 322° Northwest 411 473 40,000  Level Miami Center
04:36AM 20.5889 -68.0089 321° Northwest 405 466 40,000  Level Miami Center
04:37AM 20.6786 -68.0850 322° Northwest 405 466 40,000  Level Miami Center
04:38AM 20.7703 -68.1611 322° Northwest 405 466 40,000  Level Miami Center
04:39AM 20.8578 -68.2375 321° Northwest 405 466 40,000  Level Miami Center
04:40AM 20.9475 -68.3158 321° Northwest 405 466 40,000  Level Miami Center
04:41AM 21.0308 -68.3928 319° Northwest 411 473 40,000  Level Miami Center
04:42AM 21.1206 -68.4692 322° Northwest 411 473 40,000  Level Miami Center
04:43AM 21.2100 -68.5458 321° Northwest 411 473 40,000  Level Miami Center
04:44AM 21.2869 -68.6233 317° Northwest 400 460 40,000  Level Miami Center
04:45AM 21.3828 -68.7019 323° Northwest 400 460 40,000  Level Miami Center
04:46AM 21.4681 -68.7767 321° Northwest 400 460 40,000  Level Miami Center
04:47AM 21.5597 -68.8536 322° Northwest 401 461 40,000  Level Miami Center
04:48AM 21.6533 -68.9328 322° Northwest 411 473 40,000  Level Miami Center
04:49AM 21.7342 -69.0058 320° Northwest 401 461 40,000  Level Miami Center
04:50AM 21.8214 -69.0833 320° Northwest 401 461 40,000  Level Miami Center
04:51AM 21.9044 -69.1589 320° Northwest 391 450 40,000  Level Miami Center
04:52AM 21.9958 -69.2342 323° Northwest 397 457 40,000  Level Miami Center
04:53AM 22.0789 -69.3119 319° Northwest 397 457 40,000  Level Miami Center
04:54AM 22.1639 -69.3878 320° Northwest 397 457 40,000  Level Miami Center
04:55AM 22.2553 -69.4653 322° Northwest 397 457 40,000  Level Miami Center
04:56AM 22.3383 -69.5436 319° Northwest 397 457 40,000  Level Miami Center
04:57AM 22.4231 -69.6172 321° Northwest 397 457 40,000  Level Miami Center
04:58AM 22.5058 -69.6914 320° Northwest 398 458 40,000  Level Miami Center
04:59AM 22.5931 -69.7694 320° Northwest 398 458 40,000  Level Miami Center
05:00AM 22.6822 -69.8478 321° Northwest 398 458 40,000  Level Miami Center
05:01AM 22.7628 -69.9244 319° Northwest 398 458 40,000  Level Miami Center
05:02AM 22.8519 -70.0031 321° Northwest 397 457 40,000  Level Miami Center
05:03AM 22.9367 -70.0772 321° Northwest 397 457 40,000  Level Miami Center
05:04AM 23.0217 -70.1561 320° Northwest 397 457 40,000  Level Miami Center
05:05AM 23.1061 -70.2306 321° Northwest 389 448 40,000  Level Miami Center
05:06AM 23.1911 -70.3122 319° Northwest 397 457 40,000  Level Miami Center
05:07AM 23.2758 -70.3867 321° Northwest 397 457 40,000  Level Miami Center
05:08AM 23.3606 -70.4661 319° Northwest 397 457 40,000  Level Miami Center
05:09AM 23.4450 -70.5411 321° Northwest 397 457 40,000  Level Miami Center
05:10AM 23.5319 -70.6228 319° Northwest 397 457 40,000  Level Miami Center
05:11AM 23.6142 -70.6933 322° Northwest 392 451 40,000  Level Miami Center
05:12AM 23.7014 -70.7867 316° Northwest 397 457 40,000  Level Miami Center
05:13AM 23.7856 -70.8528 324° Northwest 397 457 40,000  Level Miami Center
05:14AM 23.8703 -70.9350 318° Northwest 397 457 40,000  Level Miami Center
05:15AM 23.9547 -71.0128 320° Northwest 402 463 40,000  Level Miami Center
05:16AM 24.0372 -71.0908 319° Northwest 402 463 40,000  Level Miami Center
05:17AM 24.1217 -71.1689 320° Northwest 402 463 40,000  Level Miami Center
05:18AM 24.2061 -71.2492 319° Northwest 402 463 40,000  Level Miami Center
05:19AM 24.2903 -71.3228 321° Northwest 397 457 40,000  Level Miami Center
05:20AM 24.3750 -71.4125 316° Northwest 402 463 40,000  Level Miami Center
05:21AM 24.4569 -71.4864 321° Northwest 402 463 40,000  Level Miami Center
05:22AM 24.5431 -71.5581 323° Northwest 397 457 40,000  Level Miami Center
05:23AM 24.6253 -71.6414 317° Northwest 397 457 40,000  Level Miami Center
05:24AM 24.7119 -71.7267 318° Northwest 397 457 40,000  Level Miami Center
05:25AM 24.7981 -71.8056 320° Northwest 397 457 40,000  Level Miami Center
05:26AM 24.8844 -71.8842 320° Northwest 397 457 40,000  Level Miami Center
05:27AM 24.9775 -71.9836 316° Northwest 407 468 40,000  Level Miami Center
05:28AM 25.0650 -72.0467 327° Northwest 401 461 40,000  Level Miami Center
05:29AM 25.0000 -72.0000 330° Northwest 409 471 40,000  Level New York Oceanic (ODAPS)
05:36AM 25.8894 -72.5655 330° Northwest 409 471 40,000  Level FlightAware Transoceanic
05:37AM 25.9881 -72.6289 330° Northwest 409 471 40,000  Level FlightAware Transoceanic
05:38AM 26.0868 -72.6923 330° Northwest 409 471 40,000  Level FlightAware Transoceanic
05:39AM 26.1854 -72.7559 330° Northwest 409 471 40,000  Level FlightAware Transoceanic
05:40AM 26.2840 -72.8196 330° Northwest 409 471 40,000  Level FlightAware Transoceanic
05:41AM 26.3826 -72.8833 330° Northwest 409 471 40,000  Level FlightAware Transoceanic
05:42AM 26.4811 -72.9472 330° Northwest 409 471 40,000  Level FlightAware Transoceanic
05:43AM 26.5797 -73.0112 330° Northwest 409 471 40,000  Level FlightAware Transoceanic
05:44AM 26.6782 -73.0753 330° Northwest 409 471 40,000  Level FlightAware Transoceanic
05:45AM 26.7766 -73.1396 330° Northwest 409 471 40,000  Level FlightAware Transoceanic
05:46AM 26.8751 -73.2039 330° Northwest 409 471 40,000  Level FlightAware Transoceanic
05:47AM 26.9735 -73.2684 330° Northwest 409 471 40,000  Level FlightAware Transoceanic
05:48AM 27.0718 -73.3329 330° Northwest 409 471 40,000  Level FlightAware Transoceanic
05:49AM 27.1702 -73.3976 330° Northwest 409 471 40,000  Level FlightAware Transoceanic
05:50AM 27.2685 -73.4624 330° Northwest 409 471 40,000  Level FlightAware Transoceanic
05:51AM 27.3668 -73.5273 330° Northwest 409 471 40,000  Level FlightAware Transoceanic
05:52AM 27.4650 -73.5923 330° Northwest 409 471 40,000  Level FlightAware Transoceanic
05:53AM 27.5633 -73.6574 330° Northwest 409 471 40,000  Level FlightAware Transoceanic
05:54AM 27.6615 -73.7227 329° Northwest 409 471 40,000  Level FlightAware Transoceanic
05:55AM 27.7596 -73.7880 329° Northwest 409 471 40,000  Level FlightAware Transoceanic
05:56AM 27.8578 -73.8535 329° Northwest 409 471 40,000  Level FlightAware Transoceanic
05:57AM 27.9559 -73.9191 329° Northwest 409 471 40,000  Level FlightAware Transoceanic
05:58AM 28.0539 -73.9849 329° Northwest 409 471 40,000  Level FlightAware Transoceanic
05:59AM 28.1520 -74.0507 329° Northwest 409 471 40,000  Level FlightAware Transoceanic
06:00AM 28.2500 -74.1167 322° Northwest 409 471 40,000  Level FlightAware Transoceanic
06:01AM 28.3394 -74.1966 322° Northwest 409 471 40,000  Level FlightAware Transoceanic
06:02AM 28.4288 -74.2767 322° Northwest 409 471 40,000  Level FlightAware Transoceanic
06:03AM 28.5181 -74.3570 322° Northwest 409 471 40,000  Level FlightAware Transoceanic
06:04AM 28.6074 -74.4373 322° Northwest 409 471 40,000  Level FlightAware Transoceanic
06:05AM 28.6966 -74.5178 322° Northwest 409 471 40,000  Level FlightAware Transoceanic
06:06AM 28.7858 -74.5985 322° Northwest 409 471 40,000  Level FlightAware Transoceanic
06:07AM 28.8749 -74.6793 322° Northwest 409 471 40,000  Level FlightAware Transoceanic
06:08AM 28.9640 -74.7602 321° Northwest 409 471 40,000  Level FlightAware Transoceanic
06:09AM 29.0530 -74.8412 321° Northwest 409 471 40,000  Level FlightAware Transoceanic
06:09AM 28.2500 -74.1167 322° Northwest 421 484 40,000  Level New York Oceanic (ODAPS)
06:10AM 29.1420 -74.9224 321° Northwest 409 471 40,000  Level FlightAware Transoceanic
06:11AM 29.2309 -75.0038 321° Northwest 409 471 40,000  Level FlightAware Transoceanic
06:12AM 29.3198 -75.0853 321° Northwest 409 471 40,000  Level FlightAware Transoceanic
06:13AM 29.4087 -75.1669 321° Northwest 409 471 40,000  Level FlightAware Transoceanic
06:14AM 29.4975 -75.2487 321° Northwest 409 471 40,000  Level FlightAware Transoceanic
06:15AM 29.7166 -75.4513 321° Northwest 421 484 40,000  Level FlightAware Transoceanic
06:16AM 29.8078 -75.5360 321° Northwest 421 484 40,000  Level FlightAware Transoceanic
06:17AM 29.8990 -75.6208 321° Northwest 421 484 40,000  Level FlightAware Transoceanic
06:18AM 29.9901 -75.7058 321° Northwest 421 484 40,000  Level FlightAware Transoceanic
06:19AM 30.0812 -75.7910 321° Northwest 421 484 40,000  Level FlightAware Transoceanic
06:20AM 30.1721 -75.8763 321° Northwest 421 484 40,000  Level FlightAware Transoceanic
06:21AM 30.2631 -75.9618 321° Northwest 421 484 40,000  Level FlightAware Transoceanic
06:22AM 30.3540 -76.0474 321° Northwest 421 484 40,000  Level FlightAware Transoceanic
06:23AM 30.4448 -76.1332 321° Northwest 421 484 40,000  Level FlightAware Transoceanic
06:24AM 30.5356 -76.2191 321° Northwest 421 484 40,000  Level FlightAware Transoceanic
06:25AM 30.6263 -76.3053 321° Northwest 421 484 40,000  Level FlightAware Transoceanic
06:26AM 30.7170 -76.3915 321° Northwest 421 484 40,000  Level FlightAware Transoceanic
06:27AM 30.8076 -76.4780 321° Northwest 421 484 40,000  Level FlightAware Transoceanic
06:28AM 30.8981 -76.5646 321° Northwest 421 484 40,000  Level FlightAware Transoceanic
06:29AM 30.9886 -76.6513 321° Northwest 421 484 40,000  Level FlightAware Transoceanic
06:30AM 31.0791 -76.7382 321° Northwest 421 484 40,000  Level FlightAware Transoceanic
06:31AM 31.1694 -76.8253 320° Northwest 421 484 40,000  Level FlightAware Transoceanic
06:32AM 31.2597 -76.9126 320° Northwest 421 484 40,000 -660 Level FlightAware Transoceanic
06:32AM 31.1417 -76.8083 321° Northwest 473 544 39,000  Descending Jacksonville Center
06:33AM 31.3500 -77.0000 321° Northwest 421 484 40,000 -1,200 Climbing FlightAware Transoceanic
06:33AM 31.2267 -76.8828 323° Northwest 439 505 37,800  Descending Jacksonville Center
06:34AM 31.4403 -77.0843 321° Northwest 421 484 40,000 -1,740 Climbing FlightAware Transoceanic
06:34AM 31.3117 -76.9600 322° Northwest 403 464 36,100 -3,180 Descending Jacksonville Center
06:35AM 31.3953 -77.0497 318° Northwest 397 457 34,800 -1,440 Descending Jacksonville Center
06:36AM 31.4828 -77.1417 318° Northwest 403 464 33,300 -1,440 Descending Jacksonville Center
06:37AM 31.5683 -77.2314 318° Northwest 409 471 32,000 -660 Descending Jacksonville Center
06:38AM 31.6558 -77.3211 319° Northwest 409 471 32,000  Level Jacksonville Center
06:39AM 31.7431 -77.4111 319° Northwest 415 478 32,000  Level Jacksonville Center
06:40AM 31.8325 -77.5011 319° Northwest 420 483 32,000  Level Jacksonville Center
06:41AM 31.9222 -77.5939 319° Northwest 420 483 32,000  Level Jacksonville Center
06:42AM 32.0117 -77.6917 317° Northwest 427 491 32,000  Level Jacksonville Center
06:43AM 32.1028 -77.7769 322° Northwest 432 497 32,000  Level Jacksonville Center
06:44AM 32.1903 -77.8778 316° Northwest 427 491 32,000  Level Jacksonville Center
06:45AM 32.2794 -77.9686 319° Northwest 427 491 32,000  Level Jacksonville Center
06:46AM 32.3686 -78.0622 318° Northwest 433 498 32,000  Level Jacksonville Center
06:47AM 32.4578 -78.1558 318° Northwest 433 498 32,000  Level Jacksonville Center
06:48AM 32.5447 -78.2500 318° Northwest 428 493 32,000  Level Jacksonville Center
06:49AM 32.6336 -78.3392 320° Northwest 433 498 32,000  Level Jacksonville Center
06:50AM 32.7225 -78.4358 318° Northwest 428 493 32,000  Level Jacksonville Center
06:51AM 32.7942 -78.5114 318° Northwest 428 493 32,000 -480 Level Jacksonville Center
06:52AM 32.9003 -78.6225 319° Northwest 433 498 31,100 -540 Descending Jacksonville Center
06:53AM 32.9889 -78.7172 318° Northwest 433 498 31,000 -60 Descending Jacksonville Center
06:54AM 33.0778 -78.8147 317° Northwest 433 498 31,000  Level Jacksonville Center
06:55AM 33.1575 -78.8956 320° Northwest 433 498 31,000  Level Jacksonville Center
06:56AM 33.2483 -78.9933 318° Northwest 433 498 31,000  Level Jacksonville Center
06:57AM 33.3367 -79.0889 318° Northwest 433 498 31,000 -180 Level Jacksonville Center
06:58AM 33.4294 -79.1869 319° Northwest 433 498 30,700 -1,500 Descending Jacksonville Center
06:59AM 33.5133 -79.2806 317° Northwest 427 491 28,100 -2,700 Descending Jacksonville Center
07:00AM 33.5975 -79.3742 317° Northwest 421 484 25,400 -2,580 Descending Jacksonville Center
07:01AM 33.6836 -79.4683 318° Northwest 416 479 23,000 -1,200 Descending Jacksonville Center
07:02AM 33.7758 -79.5619 320° Northwest 416 479 23,000  Level Jacksonville Center
07:03AM 33.8739 -79.6458 325° Northwest 423 487 23,000  Level Jacksonville Center
07:04AM 33.9697 -79.7250 326° Northwest 428 493 23,000  Level Jacksonville Center
07:05AM 34.0678 -79.8067 325° Northwest 428 493 23,000 -60 Level Jacksonville Center
07:06AM 34.1658 -79.8858 326° Northwest 428 493 22,900 -900 Descending Jacksonville Center
07:07AM 34.2594 -79.9631 326° Northwest 422 486 21,200 -2,160 Descending Jacksonville Center
07:08AM 34.3531 -80.0431 325° Northwest 411 473 18,600 -2,400 Descending Jacksonville Center
07:09AM 34.4403 -80.1181 325° Northwest 401 461 16,500 -2,100 Descending Jacksonville Center
07:10AM 34.5231 -80.1886 325° Northwest 388 447 14,400 -2,220 Descending Jacksonville Center
07:11AM 34.6344 -80.2897 323° Northwest 360 414 11,500 -1,440 Descending Atlanta Center
07:13AM 34.7139 -80.3622 323° Northwest 316 364 11,000 -480 Descending Atlanta Center
07:14AM 34.7722 -80.4356 314° West 288 331 10,500 -900 Descending Atlanta Center
07:14AM 34.8036 -80.5075 298° West 315 362 9,400 -1,380 Descending Atlanta Center
07:15AM 34.8414 -80.5867 300° West 289 333 8,200 -1,320 Descending Atlanta Center
07:16AM 34.8747 -80.6589 299° West 280 322 7,100 -1,020 Descending Atlanta Center
07:17AM 34.9081 -80.7386 297° West 268 308 6,300 -900 Descending Atlanta Center
07:18AM 34.9372 -80.8108 296° West 225 259 5,300 -1,020 Descending Atlanta Center
07:19AM 34.9617 -80.8708 296° West 213 245 4,400 -720 Descending Atlanta Center
07:20AM 35.0131 -80.9169 324° Northwest 212 244 4,000 -660 Descending Atlanta Center
07:21AM 35.0611 -80.9253 352° North 161 185 3,100 -600 Descending Atlanta Center
07:22AM 35.0947 -80.9267 358° North 131 151 2,900 -240 Descending Atlanta Center